Time;durP1;ratioP1;P1;durP2;ratioP2;P2;SDS_P1;SDS_P2;PMS_P1;PMS_P2;Temp;Humidity;BMP_temperature;BMP_pressure;BME280_temperature;BME280_humidity;BME280_pressure;Samples;Min_cycle;Max_cycle;Signal;HPM_P1;HPM_P2
2021/10/27 00:02:14;;;;;;;7.40;4.15;;;;;;;15.09;64.69;102239.91;5032906;27;102467;-68
2021/10/27 00:04:42;;;;;;;6.85;4.65;;;;;;;15.11;64.44;102242.38;5028092;27;102258;-68
2021/10/27 00:07:08;;;;;;;5.18;4.30;;;;;;;15.11;64.76;102245.13;5035196;27;104044;-69
2021/10/27 00:09:36;;;;;;;5.25;3.83;;;;;;;15.09;64.93;102234.44;5021016;27;102066;-68
2021/10/27 00:12:04;;;;;;;5.43;4.07;;;;;;;15.10;64.47;102238.81;5026913;27;102364;-68
2021/10/27 00:14:30;;;;;;;6.55;4.40;;;;;;;15.10;64.49;102230.59;5036470;27;102711;-69
2021/10/27 00:16:56;;;;;;;5.85;4.10;;;;;;;15.10;64.79;102219.63;5027757;27;103893;-68
2021/10/27 00:19:23;;;;;;;6.40;4.18;;;;;;;15.09;64.70;102223.47;5021948;27;102415;-69
2021/10/27 00:21:49;;;;;;;5.60;4.05;;;;;;;15.09;64.57;102223.47;5027370;27;102768;-69
2021/10/27 00:24:16;;;;;;;5.57;3.97;;;;;;;15.09;64.61;102222.63;5025779;27;102109;-69
2021/10/27 00:26:44;;;;;;;6.32;4.38;;;;;;;15.10;64.52;102218.78;5028240;27;103869;-69
2021/10/27 00:29:11;;;;;;;4.65;4.10;;;;;;;15.10;64.96;102219.63;5025428;27;102180;-68
2021/10/27 00:31:38;;;;;;;5.07;4.10;;;;;;;15.09;64.70;102209.75;5020060;27;102158;-68
2021/10/27 00:34:04;;;;;;;6.22;4.53;;;;;;;15.10;64.39;102213.31;5027997;27;102432;-68
2021/10/27 00:36:32;;;;;;;6.07;5.00;;;;;;;15.09;64.93;102207.00;5025579;27;103938;-69
2021/10/27 00:38:59;;;;;;;5.72;3.90;;;;;;;15.10;64.79;102211.38;5026720;27;101998;-69
2021/10/27 00:41:25;;;;;;;7.30;4.82;;;;;;;15.10;64.80;102213.31;5030378;27;102493;-69
2021/10/27 00:43:54;;;;;;;6.97;4.60;;;;;;;15.10;65.02;102208.66;5026313;27;102167;-68
2021/10/27 00:46:22;;;;;;;6.23;4.97;;;;;;;15.10;64.60;102207.84;5019681;27;103931;-68
2021/10/27 00:48:50;;;;;;;4.93;4.38;;;;;;;15.09;64.71;102212.50;5028960;27;102311;-68
2021/10/27 00:51:17;;;;;;;5.40;4.07;;;;;;;15.08;64.85;102205.38;5020405;27;102211;-69
2021/10/27 00:53:44;;;;;;;6.32;4.80;;;;;;;15.09;64.88;102204.28;5036989;27;102212;-69
2021/10/27 00:56:11;;;;;;;5.78;4.55;;;;;;;15.09;64.85;102200.69;5034293;27;104216;-68
2021/10/27 00:58:38;;;;;;;5.13;4.45;;;;;;;15.09;64.68;102200.69;5033814;27;102365;-68
2021/10/27 01:01:07;;;;;;;6.28;4.78;;;;;;;15.08;64.84;102197.13;5034433;27;102817;-69
2021/10/27 01:03:35;;;;;;;6.85;4.63;;;;;;;15.09;64.58;102200.69;5030228;27;102295;-69
2021/10/27 01:06:03;;;;;;;5.25;4.30;;;;;;;15.09;64.75;102196.03;5028719;27;103912;-69
2021/10/27 01:08:31;;;;;;;5.13;4.38;;;;;;;15.09;64.50;102196.03;5028498;27;103241;-68
2021/10/27 01:10:58;;;;;;;5.30;4.60;;;;;;;15.08;64.73;102197.13;5025335;27;102354;-68
2021/10/27 01:13:25;;;;;;;5.55;4.72;;;;;;;15.08;64.73;102194.41;5026183;27;102629;-69
2021/10/27 01:15:52;;;;;;;7.90;4.75;;;;;;;15.08;64.65;102194.41;5027359;27;103900;-69
2021/10/27 01:18:19;;;;;;;5.55;4.40;;;;;;;15.09;64.94;102196.03;5022203;27;102323;-69
2021/10/27 01:20:48;;;;;;;5.35;4.25;;;;;;;15.09;64.66;102190.56;5026330;27;102037;-69
2021/10/27 01:23:14;;;;;;;5.28;4.78;;;;;;;15.09;64.85;102196.03;5022495;27;102118;-69
2021/10/27 01:25:41;;;;;;;6.32;4.90;;;;;;;15.10;64.74;102196.88;5033681;27;102817;-69
2021/10/27 01:28:08;;;;;;;5.50;4.60;;;;;;;15.09;64.91;102201.53;5028361;27;102225;-69
2021/10/27 01:30:34;;;;;;;4.72;4.18;;;;;;;15.09;64.63;102190.56;5041068;27;102498;-68
2021/10/27 01:33:01;;;;;;;5.10;4.38;;;;;;;15.08;64.81;102188.09;5030953;27;102217;-69
2021/10/27 01:35:27;;;;;;;5.65;4.70;;;;;;;15.08;64.83;102186.19;5026181;27;103857;-68
2021/10/27 01:37:55;;;;;;;6.03;4.70;;;;;;;15.09;64.80;102185.06;5029207;27;102541;-68
2021/10/27 01:40:22;;;;;;;5.90;4.72;;;;;;;15.09;64.70;102185.06;5028012;27;103170;-68
2021/10/27 01:42:52;;;;;;;6.35;4.72;;;;;;;15.09;64.68;102179.59;5028470;27;102619;-68
2021/10/27 01:45:19;;;;;;;5.63;4.25;;;;;;;15.09;64.84;102182.34;5032387;27;103954;-69
2021/10/27 01:47:45;;;;;;;6.25;4.90;;;;;;;15.08;64.62;102175.22;5033351;27;102339;-68
2021/10/27 01:50:13;;;;;;;5.45;4.35;;;;;;;15.08;64.96;102177.94;5034280;27;102192;-69
2021/10/27 01:52:40;;;;;;;6.10;4.25;;;;;;;15.09;64.66;102179.59;5031401;27;102600;-69
2021/10/27 01:55:08;;;;;;;5.72;4.45;;;;;;;15.08;64.76;102188.91;5030344;27;103727;-69
2021/10/27 01:57:35;;;;;;;5.00;4.00;;;;;;;15.09;64.97;102187.81;5026034;27;102019;-69
2021/10/27 02:00:03;;;;;;;7.32;4.15;;;;;;;15.08;64.85;102177.94;5032881;27;102141;-68
2021/10/27 02:02:29;;;;;;;5.57;4.32;;;;;;;15.08;64.91;102188.91;5017498;27;102490;-68
2021/10/27 02:04:55;;;;;;;5.03;4.05;;;;;;;15.08;65.14;102180.69;5025929;27;108116;-67
2021/10/27 02:07:22;;;;;;;4.75;3.97;;;;;;;15.09;64.84;102189.72;5027390;27;102411;-67
2021/10/27 02:09:48;;;;;;;5.20;4.15;;;;;;;15.08;64.84;102188.91;5031940;27;102609;-68
2021/10/27 02:12:16;;;;;;;5.55;4.15;;;;;;;15.09;64.96;102193.28;5023223;27;102328;-68
2021/10/27 02:14:43;;;;;;;4.63;3.75;;;;;;;15.09;64.90;102187.81;5021748;27;104269;-68
2021/10/27 02:17:09;;;;;;;4.93;4.15;;;;;;;15.09;64.93;102193.28;5033809;27;102352;-68
2021/10/27 02:19:35;;;;;;;5.32;4.28;;;;;;;15.08;64.87;102188.91;5038314;27;102213;-67
2021/10/27 02:22:02;;;;;;;5.35;4.15;;;;;;;15.09;65.06;102187.00;5048098;27;102235;-67
2021/10/27 02:24:29;;;;;;;6.43;4.53;;;;;;;15.09;64.62;102192.47;5046032;27;102962;-68
2021/10/27 02:26:55;;;;;;;5.93;4.32;;;;;;;15.08;64.96;102188.91;5046884;27;102332;-69
2021/10/27 02:29:23;;;;;;;5.20;3.88;;;;;;;15.08;65.01;102188.91;5037169;27;102217;-69
2021/10/27 02:31:49;;;;;;;4.75;3.90;;;;;;;15.08;64.68;102191.66;5020738;27;102321;-68
2021/10/27 02:34:16;;;;;;;6.28;4.50;;;;;;;15.09;65.06;102190.56;5038479;27;102843;-69
2021/10/27 02:36:42;;;;;;;4.68;4.15;;;;;;;15.08;65.04;102197.13;5037865;27;102173;-68
2021/10/27 02:39:10;;;;;;;5.13;3.90;;;;;;;15.09;64.97;102196.03;5023390;27;102270;-69
2021/10/27 02:41:36;;;;;;;5.10;3.60;;;;;;;15.08;65.03;102197.13;5028626;27;102771;-69
2021/10/27 02:44:04;;;;;;;4.47;3.75;;;;;;;15.09;64.87;102200.69;5023742;27;103981;-68
2021/10/27 02:46:31;;;;;;;5.30;3.55;;;;;;;15.08;64.95;102197.13;5028287;27;102356;-68
2021/10/27 02:48:58;;;;;;;5.00;3.85;;;;;;;15.08;65.20;102202.63;5026988;27;102288;-68
2021/10/27 02:51:25;;;;;;;5.05;3.70;;;;;;;15.08;64.95;102199.88;5030011;27;102103;-68
2021/10/27 02:53:51;;;;;;;4.28;3.60;;;;;;;15.08;65.27;102197.13;5036089;27;103856;-69
2021/10/27 02:56:18;;;;;;;4.30;3.42;;;;;;;15.09;64.95;102196.03;5034531;27;102365;-68
2021/10/27 02:58:44;;;;;;;5.50;3.80;;;;;;;15.09;65.09;102201.53;5036279;27;102672;-69
2021/10/27 03:01:10;;;;;;;4.20;3.58;;;;;;;15.09;64.90;102189.72;5037805;27;102268;-69
2021/10/27 03:03:38;;;;;;;3.78;3.30;;;;;;;15.08;65.08;102188.91;5037580;27;103955;-68
2021/10/27 03:06:05;;;;;;;4.25;3.28;;;;;;;15.08;65.04;102186.19;5033885;27;102150;-68
2021/10/27 03:08:32;;;;;;;5.07;3.78;;;;;;;15.08;65.36;102183.44;5024064;27;102109;-69
2021/10/27 03:10:59;;;;;;;3.70;3.30;;;;;;;15.08;65.05;102197.13;5036653;27;102251;-68
2021/10/27 03:13:26;;;;;;;8.38;3.72;;;;;;;15.09;65.13;102190.56;5032363;27;103987;-69
2021/10/27 03:15:52;;;;;;;3.85;3.40;;;;;;;15.09;65.07;102196.03;5028188;27;103181;-69
2021/10/27 03:18:19;;;;;;;5.07;4.03;;;;;;;15.09;65.24;102196.03;5031734;27;101959;-69
2021/10/27 03:20:47;;;;;;;4.88;3.60;;;;;;;15.09;64.75;102201.53;5035772;27;102287;-68
2021/10/27 03:23:13;;;;;;;6.60;4.25;;;;;;;15.09;64.88;102196.03;5033225;27;103169;-69
2021/10/27 03:25:40;;;;;;;4.75;3.72;;;;;;;15.09;64.79;102195.22;5035388;27;102486;-69
2021/10/27 03:28:07;;;;;;;3.58;3.20;;;;;;;15.10;65.04;102191.38;5025390;27;102183;-69
2021/10/27 03:30:33;;;;;;;4.80;3.45;;;;;;;15.09;65.07;102187.81;5028369;27;102222;-69
2021/10/27 03:32:59;;;;;;;4.63;3.63;;;;;;;15.09;64.90;102185.06;5027226;27;103927;-68
2021/10/27 03:35:26;;;;;;;3.63;3.15;;;;;;;15.09;64.93;102189.72;5026584;27;102394;-69
2021/10/27 03:37:54;;;;;;;3.67;3.28;;;;;;;15.10;65.08;102186.72;5032251;27;102450;-69
2021/10/27 03:40:21;;;;;;;4.23;3.67;;;;;;;15.09;65.09;102196.03;5038671;27;102153;-68
2021/10/27 03:42:47;;;;;;;4.10;3.38;;;;;;;15.09;65.09;102190.56;5034471;27;103915;-69
2021/10/27 03:45:14;;;;;;;3.97;3.13;;;;;;;15.09;64.97;102185.06;5027625;27;102223;-69
2021/10/27 03:47:40;;;;;;;4.40;3.13;;;;;;;15.09;65.14;102190.56;5035076;27;102522;-69
2021/10/27 03:50:11;;;;;;;5.20;3.35;;;;;;;15.10;65.06;102199.59;5031277;27;102275;-68
2021/10/27 03:52:37;;;;;;;4.15;3.08;;;;;;;15.09;65.11;102196.03;5019589;27;103525;-69
2021/10/27 03:55:05;;;;;;;3.60;3.08;;;;;;;15.09;64.96;102193.28;5035436;27;102266;-68
2021/10/27 03:57:32;;;;;;;4.13;3.05;;;;;;;15.11;65.35;102190.28;5034947;27;103356;-69
2021/10/27 03:59:59;;;;;;;3.90;3.08;;;;;;;15.10;65.40;102186.72;5032467;27;102268;-69
2021/10/27 04:02:27;;;;;;;3.20;2.80;;;;;;;15.09;65.36;102187.81;5033747;27;104205;-69
2021/10/27 04:04:53;;;;;;;3.25;2.60;;;;;;;15.10;65.26;102189.47;5018434;27;102197;-69
2021/10/27 04:07:20;;;;;;;5.90;3.97;;;;;;;15.09;65.34;102185.06;5034132;27;103447;-69
2021/10/27 04:09:48;;;;;;;3.42;3.13;;;;;;;15.10;65.07;102186.72;5037065;27;102239;-68
2021/10/27 04:12:15;;;;;;;3.03;2.72;;;;;;;15.11;65.25;102182.06;5028708;27;103970;-69
2021/10/27 04:14:42;;;;;;;3.45;2.92;;;;;;;15.10;65.16;102181.22;5033833;27;102472;-68
2021/10/27 04:17:08;;;;;;;4.03;3.38;;;;;;;15.10;65.13;102191.38;5032792;27;102355;-69
2021/10/27 04:19:35;;;;;;;3.60;2.63;;;;;;;15.09;65.48;102176.84;5032472;27;102455;-68
2021/10/27 04:22:02;;;;;;;4.43;2.63;;;;;;;15.10;65.51;102180.41;5030802;27;104045;-67
2021/10/27 04:24:28;;;;;;;3.95;3.03;;;;;;;15.09;65.28;102174.09;5030777;27;106478;-69
2021/10/27 04:26:55;;;;;;;4.00;3.08;;;;;;;15.10;65.07;102177.66;5034225;27;102067;-68
2021/10/27 04:29:23;;;;;;;3.90;2.67;;;;;;;15.09;65.49;102179.59;5020936;27;102257;-69
2021/10/27 04:31:49;;;;;;;3.33;2.88;;;;;;;15.10;65.08;102174.94;5029271;27;103734;-69
2021/10/27 04:34:16;;;;;;;4.03;3.08;;;;;;;15.09;65.01;102174.09;5029626;27;102130;-69
2021/10/27 04:36:42;;;;;;;3.22;2.85;;;;;;;15.10;65.09;102169.44;5028393;27;102267;-69
2021/10/27 04:39:09;;;;;;;3.00;2.70;;;;;;;15.09;65.43;102174.09;5036540;27;102137;-69
2021/10/27 04:41:36;;;;;;;4.07;2.95;;;;;;;15.10;65.44;102170.25;5025748;27;104102;-69
2021/10/27 04:44:02;;;;;;;3.15;2.83;;;;;;;15.10;65.14;102175.75;5030448;27;102181;-69
2021/10/27 04:46:30;;;;;;;3.70;2.97;;;;;;;15.10;65.35;102175.75;5029860;27;102271;-68
2021/10/27 04:48:56;;;;;;;3.50;3.15;;;;;;;15.10;65.47;102186.72;5032787;27;102161;-69
2021/10/27 04:51:23;;;;;;;4.30;2.95;;;;;;;15.10;65.12;102185.91;5027959;27;103880;-68
2021/10/27 04:53:49;;;;;;;4.20;3.05;;;;;;;15.10;65.18;102178.50;5032047;27;102320;-68
2021/10/27 04:56:16;;;;;;;2.83;2.42;;;;;;;15.10;65.45;102192.19;5026955;27;102342;-69
2021/10/27 04:58:42;;;;;;;4.03;3.40;;;;;;;15.10;65.32;102192.19;5022024;27;102217;-68
2021/10/27 05:01:09;;;;;;;3.75;3.00;;;;;;;15.10;65.12;102197.69;5025424;27;103727;-68
2021/10/27 05:03:37;;;;;;;3.63;2.85;;;;;;;15.10;65.29;102196.88;5022649;27;103271;-69
2021/10/27 05:06:04;;;;;;;3.97;3.17;;;;;;;15.10;65.38;102196.88;5022921;27;104879;-69
2021/10/27 05:08:33;;;;;;;2.90;2.60;;;;;;;15.11;65.60;102199.34;5030423;27;102271;-69
2021/10/27 05:10:59;;;;;;;3.33;2.80;;;;;;;15.10;65.36;102197.69;5026147;27;103950;-69
2021/10/27 05:13:25;;;;;;;5.43;3.05;;;;;;;15.11;65.06;102193.03;5027351;27;103207;-68
2021/10/27 05:15:52;;;;;;;3.25;2.72;;;;;;;15.11;65.24;102213.06;5021750;27;105479;-68
2021/10/27 05:18:20;;;;;;;2.80;2.50;;;;;;;15.11;65.37;102209.47;5022549;27;102312;-69
2021/10/27 05:20:48;;;;;;;4.25;3.22;;;;;;;15.11;65.21;102204.00;5023579;27;103869;-68
2021/10/27 05:23:14;;;;;;;3.97;2.90;;;;;;;15.11;65.41;102206.72;5034453;27;101799;-68
2021/10/27 05:25:41;;;;;;;3.75;3.00;;;;;;;15.11;65.35;102204.84;5031316;27;102270;-70
2021/10/27 05:28:07;;;;;;;3.38;2.85;;;;;;;15.11;65.42;102207.59;5034742;27;102532;-69
2021/10/27 05:30:34;;;;;;;4.18;3.08;;;;;;;15.11;65.22;102215.81;5024326;27;103689;-68
2021/10/27 05:33:01;;;;;;;4.57;3.15;;;;;;;15.11;65.26;102213.06;5033731;27;101973;-68
2021/10/27 05:35:29;;;;;;;4.03;2.53;;;;;;;15.12;65.33;102222.13;5030464;27;102478;-68
2021/10/27 05:37:57;;;;;;;3.67;2.97;;;;;;;15.11;65.57;102221.28;5025990;27;102864;-69
2021/10/27 05:40:23;;;;;;;3.90;2.78;;;;;;;15.12;65.30;102236.66;5026883;27;104197;-70
2021/10/27 05:42:51;;;;;;;3.30;3.00;;;;;;;15.12;65.39;102233.91;5035220;27;102477;-68
2021/10/27 05:45:21;;;;;;;3.70;2.83;;;;;;;15.11;65.61;102235.00;5023227;27;102781;-69
2021/10/27 05:47:50;;;;;;;2.90;2.67;;;;;;;15.12;65.59;102236.66;5026419;27;102585;-68
2021/10/27 05:55:37;;;;;;;3.63;2.72;;;;;;;15.11;65.37;102240.50;5024806;27;102045;-68
2021/10/27 05:58:05;;;;;;;4.80;3.08;;;;;;;15.12;65.77;102238.56;5033327;27;102448;-69
2021/10/27 06:00:33;;;;;;;3.10;2.80;;;;;;;15.11;65.75;102243.22;5026724;27;103924;-69
2021/10/27 06:03:01;;;;;;;3.97;2.65;;;;;;;15.12;65.32;102235.81;5028780;27;103526;-69
2021/10/27 06:05:28;;;;;;;4.85;2.70;;;;;;;15.12;65.64;102244.88;5025714;27;102366;-69
2021/10/27 06:07:54;;;;;;;3.88;3.05;;;;;;;15.12;65.56;102250.34;5026330;27;102265;-69
2021/10/27 06:10:22;;;;;;;6.55;3.17;;;;;;;15.12;65.72;102247.63;5015668;27;103839;-68
2021/10/27 06:12:55;;;;;;;4.35;3.10;;;;;;;15.11;65.45;102254.19;5022075;27;103768;-68
2021/10/27 06:15:23;;;;;;;3.38;2.88;;;;;;;15.12;65.82;102247.63;5021745;27;102424;-69
2021/10/27 06:17:50;;;;;;;3.65;2.80;;;;;;;15.12;65.41;102244.88;5033495;27;102642;-68
2021/10/27 06:20:16;;;;;;;3.60;2.78;;;;;;;15.12;65.77;102253.09;5027955;27;104130;-68
2021/10/27 06:22:44;;;;;;;4.00;3.00;;;;;;;15.12;65.43;102249.53;5031516;27;102182;-68
2021/10/27 06:25:12;;;;;;;4.13;2.92;;;;;;;15.13;65.48;102252.00;5026518;27;103252;-69
2021/10/27 06:27:41;;;;;;;3.78;2.63;;;;;;;15.13;65.46;102246.50;5024137;27;102436;-68
2021/10/27 06:32:52;;;;;;;4.40;2.83;;;;;;;15.12;65.44;102255.84;5031261;27;102521;-69
2021/10/27 06:35:23;;;;;;;3.67;3.10;;;;;;;15.12;65.21;102261.31;5032275;27;102369;-69
2021/10/27 06:48:36;;;;;;;5.07;3.35;;;;;;;15.13;65.80;102262.16;5026169;27;102206;-67
2021/10/27 06:51:03;;;;;;;7.60;3.05;;;;;;;15.14;65.57;102255.56;5026160;27;102709;-68
2021/10/27 06:53:31;;;;;;;5.47;3.30;;;;;;;15.13;65.78;102276.69;5024338;27;103205;-67
2021/10/27 06:55:59;;;;;;;3.55;2.83;;;;;;;15.13;65.51;102257.47;5028318;27;102313;-69
2021/10/27 06:58:26;;;;;;;3.50;2.85;;;;;;;15.13;65.23;102262.16;5023386;27;102430;-69
2021/10/27 07:00:57;;;;;;;4.18;3.13;;;;;;;15.14;65.64;102258.31;5037508;27;103876;-69
2021/10/27 07:06:26;;;;;;;4.55;3.45;;;;;;;15.14;65.83;102253.63;5032619;27;102764;-67
2021/10/27 07:17:09;;;;;;;4.93;3.35;;;;;;;15.13;65.58;102246.50;5028966;27;103311;-68
2021/10/27 07:19:36;;;;;;;4.35;3.20;;;;;;;15.13;65.76;102252.00;5033790;27;102910;-68
2021/10/27 07:22:02;;;;;;;5.80;3.83;;;;;;;15.14;65.55;102241.84;5028986;27;104034;-68
2021/10/27 07:24:29;;;;;;;5.00;3.33;;;;;;;15.13;65.65;102241.03;5031881;27;102363;-68
2021/10/27 07:26:59;;;;;;;8.43;3.92;;;;;;;15.14;66.05;102247.34;5036613;27;102238;-68
2021/10/27 07:29:25;;;;;;;9.73;3.65;;;;;;;15.13;65.55;102240.22;5031949;27;102775;-68
2021/10/27 07:31:52;;;;;;;9.25;4.18;;;;;;;15.14;65.69;102239.94;5022145;27;103714;-67
2021/10/27 07:34:29;;;;;;;8.82;4.22;;;;;;;15.13;65.63;102235.53;5033376;27;102009;-68
2021/10/27 07:40:43;;;;;;;6.38;3.92;;;;;;;15.13;66.03;102230.06;5032352;27;102698;-68
2021/10/27 07:42:40;;;;;;;5.72;3.75;;;;;;;15.14;66.01;102226.22;5023839;27;103967;-67
2021/10/27 07:45:06;;;;;;;;;;;;;;;15.13;66.09;102227.31;5024279;27;103154;-68
2021/10/27 07:47:34;;;;;;;6.00;3.33;;;;;;;15.15;65.75;102218.84;5031208;27;102593;-68
2021/10/27 07:50:02;;;;;;;5.80;3.95;;;;;;;15.14;66.05;102219.91;5026906;27;102740;-68
2021/10/27 07:52:29;;;;;;;7.45;4.25;;;;;;;15.16;65.80;102222.41;5028300;27;103912;-68
2021/10/27 07:54:56;;;;;;;6.65;4.38;;;;;;;15.14;66.05;102218.00;5031812;27;102674;-68
2021/10/27 07:57:23;;;;;;;5.47;4.20;;;;;;;15.14;65.88;102215.25;5023289;27;102207;-68
2021/10/27 07:59:49;;;;;;;8.57;3.90;;;;;;;15.16;66.07;102219.66;5019719;27;102547;-68
2021/10/27 08:02:16;;;;;;;7.82;4.40;;;;;;;15.13;66.05;102219.09;5027132;27;104263;-68
2021/10/27 08:04:42;;;;;;;6.25;3.88;;;;;;;15.14;65.67;102223.47;5025917;27;102440;-67
2021/10/27 08:07:10;;;;;;;11.55;5.25;;;;;;;15.14;65.95;102215.25;5026644;27;102369;-66
2021/10/27 08:09:37;;;;;;;6.13;3.83;;;;;;;15.16;65.96;102216.94;5024980;27;102332;-67
2021/10/27 08:12:05;;;;;;;7.55;4.22;;;;;;;15.16;65.68;102205.97;5030016;27;103854;-67
2021/10/27 08:14:33;;;;;;;7.40;3.90;;;;;;;15.16;65.72;102203.22;5029290;27;102147;-66
2021/10/27 08:16:59;;;;;;;16.70;4.63;;;;;;;15.16;65.85;102200.47;5023767;27;102249;-67
2021/10/27 08:19:26;;;;;;;6.03;4.22;;;;;;;15.15;66.07;102194.16;5034715;27;102173;-66
2021/10/27 08:21:52;;;;;;;4.78;3.70;;;;;;;15.14;65.99;102196.06;5028321;27;104264;-66
2021/10/27 08:24:24;;;;;;;6.55;3.53;;;;;;;15.14;65.79;102201.53;5037837;27;102017;-67
2021/10/27 08:27:03;;;;;;;7.05;3.67;;;;;;;15.16;66.07;102200.47;5024061;27;102337;-66
2021/10/27 08:29:31;;;;;;;6.65;4.13;;;;;;;15.15;65.90;102199.66;5034743;27;102473;-66
2021/10/27 08:32:04;;;;;;;7.25;3.80;;;;;;;15.16;65.69;102205.97;5030385;27;103988;-66
2021/10/27 08:34:37;;;;;;;4.95;3.67;;;;;;;15.14;65.93;102201.53;5030272;27;103253;-67
2021/10/27 08:37:04;;;;;;;5.65;4.30;;;;;;;15.15;66.01;102205.13;5031138;27;102549;-66
2021/10/27 08:39:31;;;;;;;9.80;3.85;;;;;;;15.16;65.84;102205.97;5035087;27;102159;-66
2021/10/27 08:42:01;;;;;;;4.68;3.53;;;;;;;15.16;65.97;102205.97;5031524;27;103928;-66
2021/10/27 08:44:28;;;;;;;5.80;3.78;;;;;;;15.16;65.89;102208.69;5033467;27;102481;-67
2021/10/27 08:46:56;;;;;;;7.03;3.80;;;;;;;15.15;66.08;102205.13;5033882;27;102357;-67
2021/10/27 08:49:25;;;;;;;4.63;3.40;;;;;;;15.15;66.14;102207.88;5023484;27;102435;-67
2021/10/27 08:51:54;;;;;;;5.65;3.80;;;;;;;15.14;65.83;102212.50;5026717;27;104168;-67
2021/10/27 08:54:20;;;;;;;;;;;;;;;15.14;65.79;102215.25;5029123;27;102090;-67
2021/10/27 08:56:54;;;;;;;6.38;3.60;;;;;;;15.14;65.67;102204.28;5030453;27;102264;-66
2021/10/27 08:59:29;;;;;;;8.93;3.72;;;;;;;15.14;65.79;102207.03;5030104;27;102581;-67
2021/10/27 09:02:18;;;;;;;4.75;3.88;;;;;;;15.13;65.98;102208.13;5024556;27;103873;-67
2021/10/27 09:05:05;;;;;;;5.70;3.60;;;;;;;15.14;65.95;102204.28;5020861;27;102297;-67
2021/10/27 09:07:59;;;;;;;7.18;3.22;;;;;;;15.14;66.12;102196.06;5027850;27;102449;-67
2021/10/27 09:16:25;;;;;;;6.15;3.85;;;;;;;15.14;66.30;102209.75;5030738;27;104182;-67
2021/10/27 10:05:44;;;;;;;4.25;3.40;;;;;;;15.17;65.84;102180.19;5024311;27;102746;-66
2021/10/27 10:08:14;;;;;;;4.68;2.97;;;;;;;15.17;66.17;102174.69;5030074;27;103921;-68
2021/10/27 10:10:42;;;;;;;4.65;3.10;;;;;;;15.17;66.20;102174.69;5018904;27;102509;-66
2021/10/27 10:13:09;;;;;;;5.00;2.72;;;;;;;15.17;66.15;102169.22;5029513;27;102760;-66
2021/10/27 10:15:46;;;;;;;6.40;3.13;;;;;;;15.17;66.32;102164.53;5023445;27;102412;-67
2021/10/27 10:18:14;;;;;;;5.20;3.40;;;;;;;15.17;66.00;102164.53;5029576;27;103931;-67
2021/10/27 10:20:41;;;;;;;4.80;2.90;;;;;;;15.17;65.97;102160.97;5029013;27;101966;-67
2021/10/27 10:23:17;;;;;;;6.03;3.22;;;;;;;15.17;66.03;102159.06;5021589;27;102866;-67
2021/10/27 10:25:49;;;;;;;5.18;2.95;;;;;;;15.18;66.30;102151.66;5028909;27;102728;-66
2021/10/27 10:28:18;;;;;;;6.18;3.63;;;;;;;15.18;65.96;102163.44;5018741;27;103712;-67
2021/10/27 10:31:00;;;;;;;;;;;;;;;15.19;66.30;102156.06;5022494;27;102459;-67
2021/10/27 10:33:42;;;;;;;6.20;2.95;;;;;;;15.18;66.20;102148.91;5026667;27;102165;-67
2021/10/27 10:36:14;;;;;;;4.80;3.00;;;;;;;15.19;66.33;102156.06;5018682;27;102067;-67
2021/10/27 11:24:36;;;;;;;5.95;3.25;;;;;;;15.21;65.81;102094.34;5023397;27;102693;-67
2021/10/27 11:27:18;;;;;;;4.25;3.47;;;;;;;15.21;66.32;102093.53;5026746;27;102138;-67
2021/10/27 11:37:51;;;;;;;5.35;2.67;;;;;;;15.21;66.17;102075.16;5021809;27;102398;-66
2021/10/27 11:40:35;;;;;;;4.32;3.00;;;;;;;15.21;66.47;102077.06;5029382;27;102867;-68
2021/10/27 11:43:54;;;;;;;5.32;2.90;;;;;;;15.22;66.24;102081.47;5029877;27;102609;-66
2021/10/27 11:45:58;;;;;;;7.25;3.05;;;;;;;15.22;66.39;102082.31;5022023;27;103872;-66
2021/10/27 11:51:07;;;;;;;5.72;3.00;;;;;;;15.21;66.47;102072.41;5029689;27;102592;-67
2021/10/27 11:53:36;;;;;;;4.07;2.92;;;;;;;15.22;66.22;102067.75;5040134;27;102420;-66
2021/10/27 11:56:11;;;;;;;5.07;2.95;;;;;;;15.23;66.05;102074.91;5047049;27;102856;-66
2021/10/27 11:58:40;;;;;;;7.82;3.08;;;;;;;15.22;66.42;102071.34;5046564;27;102635;-66
2021/10/27 12:01:07;;;;;;;8.95;2.92;;;;;;;15.22;66.43;102074.09;5049172;27;102223;-66
2021/10/27 12:03:36;;;;;;;6.93;3.28;;;;;;;15.23;66.44;102069.41;5037283;27;104413;-67
2021/10/27 12:06:07;;;;;;;6.80;3.40;;;;;;;15.21;66.32;102071.59;5037003;27;104124;-67
2021/10/27 12:14:00;;;;;;;4.72;3.38;;;;;;;15.23;65.94;102069.41;5035819;27;102587;-66
2021/10/27 12:19:15;;;;;;;4.32;2.80;;;;;;;15.24;66.30;102071.06;5025323;27;102219;-66
2021/10/27 12:21:48;;;;;;;4.45;3.10;;;;;;;15.23;66.14;102063.94;5030165;27;101960;-67
2021/10/27 12:24:18;;;;;;;7.03;3.33;;;;;;;15.23;66.23;102061.19;5027739;27;103482;-68
2021/10/27 12:26:46;;;;;;;3.92;2.55;;;;;;;15.22;66.31;102068.59;5034829;27;103989;-67
2021/10/27 12:29:22;;;;;;;4.82;3.22;;;;;;;15.23;66.42;102055.72;5032027;27;102181;-67
2021/10/27 12:32:02;;;;;;;4.13;3.00;;;;;;;15.23;66.43;102055.72;5026090;27;103295;-68
2021/10/27 12:34:30;;;;;;;4.28;2.70;;;;;;;15.22;66.56;102060.38;5022031;27;102189;-66
2021/10/27 12:36:59;;;;;;;3.17;2.67;;;;;;;15.22;66.42;102057.63;5033392;27;103875;-67
2021/10/27 12:39:46;;;;;;;2.92;2.63;;;;;;;15.24;66.13;102049.13;5025688;27;102366;-67
2021/10/27 12:42:14;;;;;;;4.13;3.05;;;;;;;15.23;66.24;102058.44;5030344;27;102222;-67
2021/10/27 12:44:46;;;;;;;5.18;3.15;;;;;;;15.23;66.09;102053.78;5035606;27;102239;-67
2021/10/27 12:47:16;;;;;;;3.08;2.78;;;;;;;15.23;66.12;102053.78;5025028;27;103886;-67
2021/10/27 12:49:45;;;;;;;3.15;2.53;;;;;;;15.24;66.95;102051.88;5033371;27;102417;-67
2021/10/27 12:52:28;;;;;;;3.17;2.88;;;;;;;15.24;66.16;102054.59;5019667;27;102041;-66
2021/10/27 12:55:09;;;;;;;4.10;2.83;;;;;;;15.22;66.35;102060.38;5024100;27;102666;-66
2021/10/27 12:57:57;;;;;;;3.60;2.58;;;;;;;15.22;66.40;102054.88;5007479;27;108020;-66
2021/10/27 13:00:46;;;;;;;4.63;2.80;;;;;;;15.23;66.16;102050.22;5030221;27;102863;-67
2021/10/27 13:05:47;;;;;;;4.68;2.75;;;;;;;15.24;66.73;102051.88;5029497;27;102413;-66
2021/10/27 13:13:54;;;;;;;3.28;2.88;;;;;;;15.23;66.41;102047.47;5025997;27;102554;-67
2021/10/27 13:32:18;;;;;;;3.95;3.30;;;;;;;15.24;66.56;102038.16;5020569;27;102289;-67
2021/10/27 13:34:45;;;;;;;5.07;3.33;;;;;;;15.23;66.51;102042.00;5029700;27;102344;-68
2021/10/27 13:37:12;;;;;;;4.13;3.15;;;;;;;15.23;66.10;102044.75;5022163;27;102145;-67
2021/10/27 13:39:40;;;;;;;3.90;3.20;;;;;;;15.23;66.54;102050.22;5019918;27;104252;-67
2021/10/27 13:42:22;;;;;;;5.15;3.15;;;;;;;15.23;66.46;102052.97;5028872;27;102421;-67
2021/10/27 14:06:39;;;;;;;6.50;4.45;;;;;;;15.22;66.08;102045.81;5027147;27;102878;-67
2021/10/27 14:09:16;;;;;;;5.43;4.40;;;;;;;15.22;66.24;102054.03;5032091;27;102107;-68
2021/10/27 14:14:34;;;;;;;6.80;4.97;;;;;;;15.22;66.29;102056.78;5025849;27;102305;-68
2021/10/27 15:20:03;;;;;;;7.70;6.05;;;;;;;15.18;66.18;102089.41;5032445;27;102476;-66
2021/10/27 15:40:53;;;;;;;7.93;5.70;;;;;;;15.17;66.41;102120.66;5033434;27;102687;-67
2021/10/27 15:51:42;;;;;;;9.15;6.38;;;;;;;15.17;66.37;102115.19;5030994;27;102176;-66
2021/10/27 15:54:08;;;;;;;8.65;6.43;;;;;;;15.18;66.15;102126.97;5018539;27;102201;-67
2021/10/27 15:56:36;;;;;;;8.30;6.65;;;;;;;15.17;66.43;102117.09;5026278;27;102370;-67
2021/10/27 15:59:03;;;;;;;9.35;6.60;;;;;;;15.18;66.33;102132.47;5020493;27;104112;-68
2021/10/27 16:01:30;;;;;;;9.23;6.70;;;;;;;15.17;66.44;102136.31;5022166;27;102043;-66
2021/10/27 16:03:57;;;;;;;9.20;7.13;;;;;;;15.18;66.40;102121.47;5031510;27;102580;-67
2021/10/27 16:06:24;;;;;;;13.48;6.20;;;;;;;15.17;66.31;102130.81;5033320;27;102298;-66
2021/10/27 16:08:56;;;;;;;9.27;7.22;;;;;;;15.18;66.54;102132.47;5026759;27;103907;-67
2021/10/27 16:11:23;;;;;;;12.57;7.63;;;;;;;15.17;66.19;102133.56;5021302;27;102206;-67
2021/10/27 16:13:50;;;;;;;10.20;6.85;;;;;;;15.18;66.29;102137.94;5027704;27;103146;-67